sensor_id;sensor_type;location;lat;lon;timestamp;temperature;humidity
51733;DHT22;39139;53.144;6.244;2024-02-14T00:02:17;6.80;99.90
51733;DHT22;39139;53.144;6.244;2024-02-14T00:04:43;6.80;99.90
51733;DHT22;39139;53.144;6.244;2024-02-14T00:07:08;6.80;99.90
51733;DHT22;39139;53.144;6.244;2024-02-14T00:09:34;6.80;99.90
51733;DHT22;39139;53.144;6.244;2024-02-14T00:12:00;6.70;99.90
51733;DHT22;39139;53.144;6.244;2024-02-14T00:14:26;6.60;99.90
51733;DHT22;39139;53.144;6.244;2024-02-14T00:16:52;6.70;99.90
51733;DHT22;39139;53.144;6.244;2024-02-14T00:19:17;6.70;99.90
51733;DHT22;39139;53.144;6.244;2024-02-14T00:21:43;6.70;99.90
51733;DHT22;39139;53.144;6.244;2024-02-14T00:24:08;6.90;99.90
51733;DHT22;39139;53.144;6.244;2024-02-14T00:26:34;6.70;99.90
51733;DHT22;39139;53.144;6.244;2024-02-14T00:29:00;6.70;99.90
51733;DHT22;39139;53.144;6.244;2024-02-14T00:31:25;6.70;99.90
51733;DHT22;39139;53.144;6.244;2024-02-14T00:33:51;6.70;99.90
51733;DHT22;39139;53.144;6.244;2024-02-14T00:36:16;6.70;99.90
51733;DHT22;39139;53.144;6.244;2024-02-14T00:38:43;6.70;99.90
51733;DHT22;39139;53.144;6.244;2024-02-14T00:41:11;6.70;99.90
51733;DHT22;39139;53.144;6.244;2024-02-14T00:43:36;6.70;99.90
51733;DHT22;39139;53.144;6.244;2024-02-14T00:46:02;6.70;99.90
51733;DHT22;39139;53.144;6.244;2024-02-14T00:48:28;6.70;99.90
51733;DHT22;39139;53.144;6.244;2024-02-14T00:50:53;6.70;99.90
51733;DHT22;39139;53.144;6.244;2024-02-14T00:53:19;6.70;99.90
51733;DHT22;39139;53.144;6.244;2024-02-14T00:55:46;6.70;99.90
51733;DHT22;39139;53.144;6.244;2024-02-14T00:58:11;6.80;99.90
51733;DHT22;39139;53.144;6.244;2024-02-14T01:00:37;6.80;99.90
51733;DHT22;39139;53.144;6.244;2024-02-14T01:03:03;6.80;99.90
51733;DHT22;39139;53.144;6.244;2024-02-14T01:05:29;6.80;99.90
51733;DHT22;39139;53.144;6.244;2024-02-14T01:07:54;6.70;99.90
51733;DHT22;39139;53.144;6.244;2024-02-14T01:10:20;6.80;99.90
51733;DHT22;39139;53.144;6.244;2024-02-14T01:12:46;6.80;99.90
51733;DHT22;39139;53.144;6.244;2024-02-14T01:15:12;6.80;99.90
51733;DHT22;39139;53.144;6.244;2024-02-14T01:17:37;6.90;99.90
51733;DHT22;39139;53.144;6.244;2024-02-14T01:20:07;6.90;99.90
51733;DHT22;39139;53.144;6.244;2024-02-14T01:22:36;6.90;99.90
51733;DHT22;39139;53.144;6.244;2024-02-14T01:25:02;6.90;99.90
51733;DHT22;39139;53.144;6.244;2024-02-14T01:27:28;6.90;99.90
51733;DHT22;39139;53.144;6.244;2024-02-14T01:29:54;6.90;99.90
51733;DHT22;39139;53.144;6.244;2024-02-14T01:32:20;6.90;99.90
51733;DHT22;39139;53.144;6.244;2024-02-14T01:34:46;6.90;99.90
51733;DHT22;39139;53.144;6.244;2024-02-14T01:37:11;7.00;99.90
51733;DHT22;39139;53.144;6.244;2024-02-14T01:39:37;7.00;99.90
51733;DHT22;39139;53.144;6.244;2024-02-14T01:42:03;7.00;99.90
51733;DHT22;39139;53.144;6.244;2024-02-14T01:44:33;7.00;99.90
51733;DHT22;39139;53.144;6.244;2024-02-14T01:47:00;7.00;99.90
51733;DHT22;39139;53.144;6.244;2024-02-14T01:49:26;7.10;99.90
51733;DHT22;39139;53.144;6.244;2024-02-14T01:51:55;7.10;99.90
51733;DHT22;39139;53.144;6.244;2024-02-14T01:54:21;7.10;99.90
51733;DHT22;39139;53.144;6.244;2024-02-14T01:56:47;7.10;99.90
51733;DHT22;39139;53.144;6.244;2024-02-14T01:59:13;7.10;99.90
51733;DHT22;39139;53.144;6.244;2024-02-14T02:01:41;7.20;99.90
51733;DHT22;39139;53.144;6.244;2024-02-14T02:04:08;7.10;99.90
51733;DHT22;39139;53.144;6.244;2024-02-14T02:06:33;7.20;99.90
51733;DHT22;39139;53.144;6.244;2024-02-14T02:09:00;7.20;99.90
51733;DHT22;39139;53.144;6.244;2024-02-14T02:11:25;7.20;99.90
51733;DHT22;39139;53.144;6.244;2024-02-14T02:13:52;7.20;99.90
51733;DHT22;39139;53.144;6.244;2024-02-14T02:16:17;7.30;99.90
51733;DHT22;39139;53.144;6.244;2024-02-14T02:18:45;7.30;99.90
51733;DHT22;39139;53.144;6.244;2024-02-14T02:21:11;7.30;99.90
51733;DHT22;39139;53.144;6.244;2024-02-14T02:23:38;7.30;99.90
51733;DHT22;39139;53.144;6.244;2024-02-14T02:26:06;7.30;99.90
51733;DHT22;39139;53.144;6.244;2024-02-14T02:28:31;7.40;99.90
51733;DHT22;39139;53.144;6.244;2024-02-14T02:30:57;7.40;99.90
51733;DHT22;39139;53.144;6.244;2024-02-14T02:33:23;7.40;99.90
51733;DHT22;39139;53.144;6.244;2024-02-14T02:35:50;7.40;99.90
51733;DHT22;39139;53.144;6.244;2024-02-14T02:38:18;7.40;99.90
51733;DHT22;39139;53.144;6.244;2024-02-14T02:40:45;7.40;99.90
51733;DHT22;39139;53.144;6.244;2024-02-14T02:43:11;7.40;99.90
51733;DHT22;39139;53.144;6.244;2024-02-14T02:45:36;7.50;99.90
51733;DHT22;39139;53.144;6.244;2024-02-14T02:48:02;7.60;99.90
51733;DHT22;39139;53.144;6.244;2024-02-14T02:50:28;7.60;99.90
51733;DHT22;39139;53.144;6.244;2024-02-14T02:52:55;7.60;99.90
51733;DHT22;39139;53.144;6.244;2024-02-14T02:55:22;7.70;99.90
51733;DHT22;39139;53.144;6.244;2024-02-14T02:57:48;7.60;99.90
51733;DHT22;39139;53.144;6.244;2024-02-14T03:00:14;7.70;99.90
51733;DHT22;39139;53.144;6.244;2024-02-14T03:02:41;7.70;99.90
51733;DHT22;39139;53.144;6.244;2024-02-14T03:05:10;7.70;99.90
51733;DHT22;39139;53.144;6.244;2024-02-14T03:07:39;7.70;99.90
51733;DHT22;39139;53.144;6.244;2024-02-14T03:10:05;7.80;99.90
51733;DHT22;39139;53.144;6.244;2024-02-14T03:12:30;7.80;99.90
51733;DHT22;39139;53.144;6.244;2024-02-14T03:14:57;7.90;99.90
51733;DHT22;39139;53.144;6.244;2024-02-14T03:17:23;7.80;99.90
51733;DHT22;39139;53.144;6.244;2024-02-14T03:19:49;7.90;99.90
51733;DHT22;39139;53.144;6.244;2024-02-14T03:22:17;7.90;99.90
51733;DHT22;39139;53.144;6.244;2024-02-14T03:24:44;8.00;99.90
51733;DHT22;39139;53.144;6.244;2024-02-14T03:27:12;8.00;99.90
51733;DHT22;39139;53.144;6.244;2024-02-14T03:29:37;8.00;99.90
51733;DHT22;39139;53.144;6.244;2024-02-14T03:32:04;8.10;99.90
51733;DHT22;39139;53.144;6.244;2024-02-14T03:34:31;8.10;99.90
51733;DHT22;39139;53.144;6.244;2024-02-14T03:36:59;8.10;99.90
51733;DHT22;39139;53.144;6.244;2024-02-14T03:39:25;8.10;99.90
51733;DHT22;39139;53.144;6.244;2024-02-14T03:41:51;8.20;99.90
51733;DHT22;39139;53.144;6.244;2024-02-14T03:44:18;8.10;99.90
51733;DHT22;39139;53.144;6.244;2024-02-14T03:46:43;8.20;99.90
51733;DHT22;39139;53.144;6.244;2024-02-14T03:49:09;8.20;99.90
51733;DHT22;39139;53.144;6.244;2024-02-14T03:51:35;8.30;99.90
51733;DHT22;39139;53.144;6.244;2024-02-14T03:54:00;8.30;99.90
51733;DHT22;39139;53.144;6.244;2024-02-14T03:56:26;8.30;99.90
51733;DHT22;39139;53.144;6.244;2024-02-14T03:58:52;8.40;99.90
51733;DHT22;39139;53.144;6.244;2024-02-14T04:01:17;8.60;99.90
51733;DHT22;39139;53.144;6.244;2024-02-14T04:03:46;8.60;99.90
51733;DHT22;39139;53.144;6.244;2024-02-14T04:06:12;8.50;99.90
51733;DHT22;39139;53.144;6.244;2024-02-14T04:08:38;8.50;99.90
51733;DHT22;39139;53.144;6.244;2024-02-14T04:11:04;8.60;99.90
51733;DHT22;39139;53.144;6.244;2024-02-14T04:13:30;8.70;99.90
51733;DHT22;39139;53.144;6.244;2024-02-14T04:15:56;8.70;99.90
51733;DHT22;39139;53.144;6.244;2024-02-14T04:18:21;8.70;99.90
51733;DHT22;39139;53.144;6.244;2024-02-14T04:20:47;8.70;99.90
51733;DHT22;39139;53.144;6.244;2024-02-14T04:23:13;8.80;99.90
51733;DHT22;39139;53.144;6.244;2024-02-14T04:25:38;8.80;99.90
51733;DHT22;39139;53.144;6.244;2024-02-14T04:28:04;8.70;99.90
51733;DHT22;39139;53.144;6.244;2024-02-14T04:30:30;9.10;99.90
51733;DHT22;39139;53.144;6.244;2024-02-14T04:32:55;8.80;99.90
51733;DHT22;39139;53.144;6.244;2024-02-14T04:35:22;8.80;99.90
51733;DHT22;39139;53.144;6.244;2024-02-14T04:37:47;8.80;99.90
51733;DHT22;39139;53.144;6.244;2024-02-14T04:40:15;8.70;99.90
51733;DHT22;39139;53.144;6.244;2024-02-14T04:42:41;8.80;99.90
51733;DHT22;39139;53.144;6.244;2024-02-14T04:45:07;8.80;99.90
51733;DHT22;39139;53.144;6.244;2024-02-14T04:47:33;8.80;99.90
51733;DHT22;39139;53.144;6.244;2024-02-14T04:49:59;8.80;99.90
51733;DHT22;39139;53.144;6.244;2024-02-14T04:52:25;8.90;99.90
51733;DHT22;39139;53.144;6.244;2024-02-14T04:54:51;8.90;99.90
51733;DHT22;39139;53.144;6.244;2024-02-14T04:57:16;8.90;99.90
51733;DHT22;39139;53.144;6.244;2024-02-14T04:59:44;8.90;99.90
51733;DHT22;39139;53.144;6.244;2024-02-14T05:02:09;9.00;99.90
51733;DHT22;39139;53.144;6.244;2024-02-14T05:04:36;9.00;99.90
51733;DHT22;39139;53.144;6.244;2024-02-14T05:07:03;9.00;99.90
51733;DHT22;39139;53.144;6.244;2024-02-14T05:09:29;9.00;99.90
51733;DHT22;39139;53.144;6.244;2024-02-14T05:11:55;9.00;99.90
51733;DHT22;39139;53.144;6.244;2024-02-14T05:14:20;9.10;99.90
51733;DHT22;39139;53.144;6.244;2024-02-14T05:16:46;9.10;99.90
51733;DHT22;39139;53.144;6.244;2024-02-14T05:19:11;9.10;99.90
51733;DHT22;39139;53.144;6.244;2024-02-14T05:21:38;9.10;99.90
51733;DHT22;39139;53.144;6.244;2024-02-14T05:24:04;9.00;99.90
51733;DHT22;39139;53.144;6.244;2024-02-14T05:26:30;9.10;99.90
51733;DHT22;39139;53.144;6.244;2024-02-14T05:28:55;9.20;99.90
51733;DHT22;39139;53.144;6.244;2024-02-14T05:31:21;9.10;99.90
51733;DHT22;39139;53.144;6.244;2024-02-14T05:33:47;9.20;99.90
51733;DHT22;39139;53.144;6.244;2024-02-14T05:36:13;9.20;99.90
51733;DHT22;39139;53.144;6.244;2024-02-14T05:38:38;9.20;99.90
51733;DHT22;39139;53.144;6.244;2024-02-14T05:41:04;9.10;99.90
51733;DHT22;39139;53.144;6.244;2024-02-14T05:43:30;9.10;99.90
51733;DHT22;39139;53.144;6.244;2024-02-14T05:45:55;9.10;99.90
51733;DHT22;39139;53.144;6.244;2024-02-14T05:48:21;9.20;99.90
51733;DHT22;39139;53.144;6.244;2024-02-14T05:50:46;9.30;99.90
51733;DHT22;39139;53.144;6.244;2024-02-14T05:53:12;9.20;99.90
51733;DHT22;39139;53.144;6.244;2024-02-14T05:55:38;9.30;99.90
51733;DHT22;39139;53.144;6.244;2024-02-14T05:58:04;9.30;99.90
51733;DHT22;39139;53.144;6.244;2024-02-14T06:00:32;9.40;99.90
51733;DHT22;39139;53.144;6.244;2024-02-14T06:03:01;9.40;99.90
51733;DHT22;39139;53.144;6.244;2024-02-14T06:05:27;9.40;99.90
51733;DHT22;39139;53.144;6.244;2024-02-14T06:07:53;9.50;99.90
51733;DHT22;39139;53.144;6.244;2024-02-14T06:10:18;9.50;99.90
51733;DHT22;39139;53.144;6.244;2024-02-14T06:12:44;9.50;99.90
51733;DHT22;39139;53.144;6.244;2024-02-14T06:15:10;9.70;99.90
51733;DHT22;39139;53.144;6.244;2024-02-14T06:17:36;9.40;99.90
51733;DHT22;39139;53.144;6.244;2024-02-14T06:20:01;9.50;99.90
51733;DHT22;39139;53.144;6.244;2024-02-14T06:22:32;9.60;99.90
51733;DHT22;39139;53.144;6.244;2024-02-14T06:24:59;9.50;99.90
51733;DHT22;39139;53.144;6.244;2024-02-14T06:27:25;9.50;99.90
51733;DHT22;39139;53.144;6.244;2024-02-14T06:29:51;9.60;99.90
51733;DHT22;39139;53.144;6.244;2024-02-14T06:32:18;9.50;99.90
51733;DHT22;39139;53.144;6.244;2024-02-14T06:34:44;9.50;99.90
51733;DHT22;39139;53.144;6.244;2024-02-14T06:37:10;9.60;99.90
51733;DHT22;39139;53.144;6.244;2024-02-14T06:39:35;9.60;99.90
51733;DHT22;39139;53.144;6.244;2024-02-14T06:42:01;9.70;99.90
51733;DHT22;39139;53.144;6.244;2024-02-14T06:44:26;9.50;99.90
51733;DHT22;39139;53.144;6.244;2024-02-14T06:46:52;9.50;99.90
51733;DHT22;39139;53.144;6.244;2024-02-14T06:49:18;9.60;99.90
51733;DHT22;39139;53.144;6.244;2024-02-14T06:51:44;9.50;99.90
51733;DHT22;39139;53.144;6.244;2024-02-14T06:54:10;9.60;99.90
51733;DHT22;39139;53.144;6.244;2024-02-14T06:56:38;9.70;99.90
51733;DHT22;39139;53.144;6.244;2024-02-14T06:59:03;9.60;99.90
51733;DHT22;39139;53.144;6.244;2024-02-14T07:01:30;9.50;99.90
51733;DHT22;39139;53.144;6.244;2024-02-14T07:03:56;9.50;99.90
51733;DHT22;39139;53.144;6.244;2024-02-14T07:06:21;9.50;99.90
51733;DHT22;39139;53.144;6.244;2024-02-14T07:08:47;9.60;99.90
51733;DHT22;39139;53.144;6.244;2024-02-14T07:11:14;9.50;99.90
51733;DHT22;39139;53.144;6.244;2024-02-14T07:13:41;9.50;99.90
51733;DHT22;39139;53.144;6.244;2024-02-14T07:16:06;9.50;99.90
51733;DHT22;39139;53.144;6.244;2024-02-14T07:18:34;9.60;99.90
51733;DHT22;39139;53.144;6.244;2024-02-14T07:20:59;9.60;99.90
51733;DHT22;39139;53.144;6.244;2024-02-14T07:23:25;9.50;99.90
51733;DHT22;39139;53.144;6.244;2024-02-14T07:25:52;9.90;99.90
51733;DHT22;39139;53.144;6.244;2024-02-14T07:28:17;9.50;99.90
51733;DHT22;39139;53.144;6.244;2024-02-14T07:30:43;9.70;99.90
51733;DHT22;39139;53.144;6.244;2024-02-14T07:33:09;9.60;99.90
51733;DHT22;39139;53.144;6.244;2024-02-14T07:35:36;9.60;99.90
51733;DHT22;39139;53.144;6.244;2024-02-14T07:38:02;9.70;99.90
51733;DHT22;39139;53.144;6.244;2024-02-14T07:40:27;9.70;99.90
51733;DHT22;39139;53.144;6.244;2024-02-14T07:42:56;9.60;99.90
51733;DHT22;39139;53.144;6.244;2024-02-14T07:45:22;9.60;99.90
51733;DHT22;39139;53.144;6.244;2024-02-14T07:47:49;9.70;99.90
51733;DHT22;39139;53.144;6.244;2024-02-14T07:50:15;9.60;99.90
51733;DHT22;39139;53.144;6.244;2024-02-14T07:52:45;9.70;99.90
51733;DHT22;39139;53.144;6.244;2024-02-14T07:55:11;9.60;99.90
51733;DHT22;39139;53.144;6.244;2024-02-14T07:57:40;9.70;99.90
51733;DHT22;39139;53.144;6.244;2024-02-14T08:00:06;9.80;99.90
51733;DHT22;39139;53.144;6.244;2024-02-14T08:02:35;9.70;99.90
51733;DHT22;39139;53.144;6.244;2024-02-14T08:05:02;9.80;99.90
51733;DHT22;39139;53.144;6.244;2024-02-14T08:07:27;9.80;99.90
51733;DHT22;39139;53.144;6.244;2024-02-14T08:09:54;9.80;99.90
51733;DHT22;39139;53.144;6.244;2024-02-14T08:12:20;9.80;99.90
51733;DHT22;39139;53.144;6.244;2024-02-14T08:14:46;9.80;99.90
51733;DHT22;39139;53.144;6.244;2024-02-14T08:17:12;9.80;99.90
51733;DHT22;39139;53.144;6.244;2024-02-14T08:19:39;9.90;99.90
51733;DHT22;39139;53.144;6.244;2024-02-14T08:22:05;9.90;99.90
51733;DHT22;39139;53.144;6.244;2024-02-14T08:24:31;9.90;99.90
51733;DHT22;39139;53.144;6.244;2024-02-14T08:26:57;9.90;99.90
51733;DHT22;39139;53.144;6.244;2024-02-14T08:29:23;9.90;99.90
51733;DHT22;39139;53.144;6.244;2024-02-14T08:31:48;9.90;99.90
51733;DHT22;39139;53.144;6.244;2024-02-14T08:34:14;9.80;99.90
51733;DHT22;39139;53.144;6.244;2024-02-14T08:36:41;9.90;99.90
51733;DHT22;39139;53.144;6.244;2024-02-14T08:39:10;10.20;99.90
51733;DHT22;39139;53.144;6.244;2024-02-14T08:41:38;9.90;99.90
51733;DHT22;39139;53.144;6.244;2024-02-14T08:44:06;9.90;99.90
51733;DHT22;39139;53.144;6.244;2024-02-14T08:46:32;9.90;99.90
51733;DHT22;39139;53.144;6.244;2024-02-14T08:49:00;10.00;99.90
51733;DHT22;39139;53.144;6.244;2024-02-14T08:51:28;10.10;99.90
51733;DHT22;39139;53.144;6.244;2024-02-14T08:53:53;10.10;99.90
51733;DHT22;39139;53.144;6.244;2024-02-14T08:56:21;10.10;99.90
51733;DHT22;39139;53.144;6.244;2024-02-14T08:58:48;10.00;99.90
51733;DHT22;39139;53.144;6.244;2024-02-14T09:01:14;10.10;99.90
51733;DHT22;39139;53.144;6.244;2024-02-14T09:03:41;10.10;99.90
51733;DHT22;39139;53.144;6.244;2024-02-14T09:06:08;10.10;99.90
51733;DHT22;39139;53.144;6.244;2024-02-14T09:08:34;10.10;99.90
51733;DHT22;39139;53.144;6.244;2024-02-14T09:11:00;10.10;99.90
51733;DHT22;39139;53.144;6.244;2024-02-14T09:13:26;10.20;99.90
51733;DHT22;39139;53.144;6.244;2024-02-14T09:15:52;10.20;99.90
51733;DHT22;39139;53.144;6.244;2024-02-14T09:18:20;10.20;99.90
51733;DHT22;39139;53.144;6.244;2024-02-14T09:20:45;10.30;99.90
51733;DHT22;39139;53.144;6.244;2024-02-14T09:23:12;10.30;99.90
51733;DHT22;39139;53.144;6.244;2024-02-14T09:25:39;10.30;99.90
51733;DHT22;39139;53.144;6.244;2024-02-14T09:28:05;10.20;99.90
51733;DHT22;39139;53.144;6.244;2024-02-14T09:30:32;10.30;99.90
51733;DHT22;39139;53.144;6.244;2024-02-14T09:32:58;10.30;99.90
51733;DHT22;39139;53.144;6.244;2024-02-14T09:35:24;10.30;99.90
51733;DHT22;39139;53.144;6.244;2024-02-14T09:37:51;10.20;99.90
51733;DHT22;39139;53.144;6.244;2024-02-14T09:40:17;10.20;99.90
51733;DHT22;39139;53.144;6.244;2024-02-14T09:42:43;10.30;99.90
51733;DHT22;39139;53.144;6.244;2024-02-14T09:45:10;10.20;99.90
51733;DHT22;39139;53.144;6.244;2024-02-14T09:47:37;10.30;99.90
51733;DHT22;39139;53.144;6.244;2024-02-14T09:50:06;9.30;99.90
51733;DHT22;39139;53.144;6.244;2024-02-14T09:52:33;10.20;99.90
51733;DHT22;39139;53.144;6.244;2024-02-14T09:54:59;10.30;99.90
51733;DHT22;39139;53.144;6.244;2024-02-14T09:57:29;10.20;99.90
51733;DHT22;39139;53.144;6.244;2024-02-14T09:59:56;10.30;99.90
51733;DHT22;39139;53.144;6.244;2024-02-14T10:02:22;10.30;99.90
51733;DHT22;39139;53.144;6.244;2024-02-14T10:04:48;10.20;99.90
51733;DHT22;39139;53.144;6.244;2024-02-14T10:07:13;10.30;99.90
51733;DHT22;39139;53.144;6.244;2024-02-14T10:09:43;10.30;99.90
51733;DHT22;39139;53.144;6.244;2024-02-14T10:12:13;10.40;99.90
51733;DHT22;39139;53.144;6.244;2024-02-14T10:14:38;10.30;99.90
51733;DHT22;39139;53.144;6.244;2024-02-14T10:17:04;10.40;99.90
51733;DHT22;39139;53.144;6.244;2024-02-14T10:19:35;10.30;99.90
51733;DHT22;39139;53.144;6.244;2024-02-14T10:22:01;10.40;99.90
51733;DHT22;39139;53.144;6.244;2024-02-14T10:24:31;10.30;99.90
51733;DHT22;39139;53.144;6.244;2024-02-14T10:26:59;10.40;99.90
51733;DHT22;39139;53.144;6.244;2024-02-14T10:29:25;10.50;99.90
51733;DHT22;39139;53.144;6.244;2024-02-14T10:31:52;10.50;99.90
51733;DHT22;39139;53.144;6.244;2024-02-14T10:34:18;10.50;99.90
51733;DHT22;39139;53.144;6.244;2024-02-14T10:36:45;10.50;99.90
51733;DHT22;39139;53.144;6.244;2024-02-14T10:39:12;10.50;99.90
51733;DHT22;39139;53.144;6.244;2024-02-14T10:41:39;10.60;99.90
51733;DHT22;39139;53.144;6.244;2024-02-14T10:44:05;10.60;99.90
51733;DHT22;39139;53.144;6.244;2024-02-14T10:46:37;10.60;99.90
51733;DHT22;39139;53.144;6.244;2024-02-14T10:49:04;10.60;99.90
51733;DHT22;39139;53.144;6.244;2024-02-14T10:51:34;10.60;99.90
51733;DHT22;39139;53.144;6.244;2024-02-14T10:54:05;10.60;99.90
51733;DHT22;39139;53.144;6.244;2024-02-14T10:56:35;10.60;99.90
51733;DHT22;39139;53.144;6.244;2024-02-14T10:59:04;10.50;99.90
51733;DHT22;39139;53.144;6.244;2024-02-14T11:01:32;10.60;99.90
51733;DHT22;39139;53.144;6.244;2024-02-14T11:04:01;10.60;99.90
51733;DHT22;39139;53.144;6.244;2024-02-14T11:06:27;10.70;99.90
51733;DHT22;39139;53.144;6.244;2024-02-14T11:09:04;10.70;99.90
51733;DHT22;39139;53.144;6.244;2024-02-14T11:11:38;10.70;99.90
51733;DHT22;39139;53.144;6.244;2024-02-14T11:14:04;10.70;99.90
51733;DHT22;39139;53.144;6.244;2024-02-14T11:16:31;10.80;99.90
51733;DHT22;39139;53.144;6.244;2024-02-14T11:19:11;10.90;99.90
51733;DHT22;39139;53.144;6.244;2024-02-14T11:21:46;10.90;99.90
51733;DHT22;39139;53.144;6.244;2024-02-14T11:24:13;10.90;99.90
51733;DHT22;39139;53.144;6.244;2024-02-14T11:26:50;10.80;99.90
51733;DHT22;39139;53.144;6.244;2024-02-14T11:29:17;10.80;99.90
51733;DHT22;39139;53.144;6.244;2024-02-14T11:31:44;10.80;99.90
51733;DHT22;39139;53.144;6.244;2024-02-14T11:34:14;11.00;99.90
51733;DHT22;39139;53.144;6.244;2024-02-14T11:36:43;10.90;99.90
51733;DHT22;39139;53.144;6.244;2024-02-14T11:39:10;10.90;99.90
51733;DHT22;39139;53.144;6.244;2024-02-14T11:41:37;10.80;99.90
51733;DHT22;39139;53.144;6.244;2024-02-14T11:44:04;10.90;99.90
51733;DHT22;39139;53.144;6.244;2024-02-14T11:46:34;11.00;99.90
51733;DHT22;39139;53.144;6.244;2024-02-14T11:49:04;10.90;99.90
51733;DHT22;39139;53.144;6.244;2024-02-14T11:51:33;11.20;99.90
51733;DHT22;39139;53.144;6.244;2024-02-14T11:54:00;10.90;99.90
51733;DHT22;39139;53.144;6.244;2024-02-14T11:56:36;11.00;99.90
51733;DHT22;39139;53.144;6.244;2024-02-14T11:59:08;11.00;99.90
51733;DHT22;39139;53.144;6.244;2024-02-14T12:01:36;11.00;99.90
51733;DHT22;39139;53.144;6.244;2024-02-14T12:04:05;11.10;99.90
51733;DHT22;39139;53.144;6.244;2024-02-14T12:06:33;11.10;99.90
51733;DHT22;39139;53.144;6.244;2024-02-14T12:09:02;11.10;99.90
51733;DHT22;39139;53.144;6.244;2024-02-14T12:11:31;11.30;99.90
51733;DHT22;39139;53.144;6.244;2024-02-14T12:14:01;11.30;99.90
51733;DHT22;39139;53.144;6.244;2024-02-14T12:16:28;11.30;99.90
51733;DHT22;39139;53.144;6.244;2024-02-14T12:19:14;11.30;99.90
51733;DHT22;39139;53.144;6.244;2024-02-14T12:21:41;11.30;99.90
51733;DHT22;39139;53.144;6.244;2024-02-14T12:24:10;11.20;99.90
51733;DHT22;39139;53.144;6.244;2024-02-14T12:26:39;11.20;99.90
51733;DHT22;39139;53.144;6.244;2024-02-14T12:29:06;11.30;99.90
51733;DHT22;39139;53.144;6.244;2024-02-14T12:31:36;11.30;99.90
51733;DHT22;39139;53.144;6.244;2024-02-14T12:34:03;11.20;99.90
51733;DHT22;39139;53.144;6.244;2024-02-14T12:36:33;11.30;99.90
51733;DHT22;39139;53.144;6.244;2024-02-14T12:39:02;11.20;99.90
51733;DHT22;39139;53.144;6.244;2024-02-14T12:41:29;11.30;99.90
51733;DHT22;39139;53.144;6.244;2024-02-14T12:43:55;11.20;99.90
51733;DHT22;39139;53.144;6.244;2024-02-14T12:46:21;11.40;99.90
51733;DHT22;39139;53.144;6.244;2024-02-14T12:48:47;11.40;99.90
51733;DHT22;39139;53.144;6.244;2024-02-14T12:51:14;11.40;99.90
51733;DHT22;39139;53.144;6.244;2024-02-14T12:53:39;11.40;99.90
51733;DHT22;39139;53.144;6.244;2024-02-14T12:56:07;11.20;99.90
51733;DHT22;39139;53.144;6.244;2024-02-14T12:58:33;11.20;99.90
51733;DHT22;39139;53.144;6.244;2024-02-14T13:00:58;11.20;99.90
51733;DHT22;39139;53.144;6.244;2024-02-14T13:03:25;11.30;99.90
51733;DHT22;39139;53.144;6.244;2024-02-14T13:05:50;11.20;99.90
51733;DHT22;39139;53.144;6.244;2024-02-14T13:08:18;11.40;99.90
51733;DHT22;39139;53.144;6.244;2024-02-14T13:10:44;11.40;99.90
51733;DHT22;39139;53.144;6.244;2024-02-14T13:13:10;11.30;99.90
51733;DHT22;39139;53.144;6.244;2024-02-14T13:15:36;11.40;99.90
51733;DHT22;39139;53.144;6.244;2024-02-14T13:18:02;11.20;99.90
51733;DHT22;39139;53.144;6.244;2024-02-14T13:20:28;11.40;99.90
51733;DHT22;39139;53.144;6.244;2024-02-14T13:22:54;11.40;99.90
51733;DHT22;39139;53.144;6.244;2024-02-14T13:25:20;11.30;99.90
51733;DHT22;39139;53.144;6.244;2024-02-14T13:27:47;11.40;99.90
51733;DHT22;39139;53.144;6.244;2024-02-14T13:30:12;10.30;99.90
51733;DHT22;39139;53.144;6.244;2024-02-14T13:32:38;11.20;99.90
51733;DHT22;39139;53.144;6.244;2024-02-14T13:35:04;11.30;99.90
51733;DHT22;39139;53.144;6.244;2024-02-14T13:37:31;11.30;99.90
51733;DHT22;39139;53.144;6.244;2024-02-14T13:39:57;11.30;99.90
51733;DHT22;39139;53.144;6.244;2024-02-14T13:42:23;11.20;99.90
51733;DHT22;39139;53.144;6.244;2024-02-14T13:44:48;11.20;99.90
51733;DHT22;39139;53.144;6.244;2024-02-14T13:47:18;11.10;99.90
51733;DHT22;39139;53.144;6.244;2024-02-14T13:49:44;11.10;99.90
51733;DHT22;39139;53.144;6.244;2024-02-14T13:52:10;11.20;99.90
51733;DHT22;39139;53.144;6.244;2024-02-14T13:54:35;11.20;99.90
51733;DHT22;39139;53.144;6.244;2024-02-14T13:57:01;11.20;99.90
51733;DHT22;39139;53.144;6.244;2024-02-14T13:59:28;11.30;99.90
51733;DHT22;39139;53.144;6.244;2024-02-14T14:01:54;11.30;99.90
51733;DHT22;39139;53.144;6.244;2024-02-14T14:04:20;11.20;99.90
51733;DHT22;39139;53.144;6.244;2024-02-14T14:06:46;11.30;99.90
51733;DHT22;39139;53.144;6.244;2024-02-14T14:09:14;11.30;99.90
51733;DHT22;39139;53.144;6.244;2024-02-14T14:11:39;11.40;99.90
51733;DHT22;39139;53.144;6.244;2024-02-14T14:14:06;11.30;99.90
51733;DHT22;39139;53.144;6.244;2024-02-14T14:16:31;11.30;99.90
51733;DHT22;39139;53.144;6.244;2024-02-14T14:19:00;11.40;99.90
51733;DHT22;39139;53.144;6.244;2024-02-14T14:21:30;11.40;99.90
51733;DHT22;39139;53.144;6.244;2024-02-14T14:23:55;11.40;99.90
51733;DHT22;39139;53.144;6.244;2024-02-14T14:26:21;11.40;99.90
51733;DHT22;39139;53.144;6.244;2024-02-14T14:28:47;11.40;99.90
51733;DHT22;39139;53.144;6.244;2024-02-14T14:31:12;11.40;99.90
51733;DHT22;39139;53.144;6.244;2024-02-14T14:33:38;11.50;99.90
51733;DHT22;39139;53.144;6.244;2024-02-14T14:36:07;11.50;99.90
51733;DHT22;39139;53.144;6.244;2024-02-14T14:38:34;11.50;99.90
51733;DHT22;39139;53.144;6.244;2024-02-14T14:41:00;11.50;99.90
51733;DHT22;39139;53.144;6.244;2024-02-14T14:43:25;11.50;99.90
51733;DHT22;39139;53.144;6.244;2024-02-14T14:45:51;11.40;99.90
51733;DHT22;39139;53.144;6.244;2024-02-14T14:48:18;11.50;99.90
51733;DHT22;39139;53.144;6.244;2024-02-14T14:50:44;11.40;99.90
51733;DHT22;39139;53.144;6.244;2024-02-14T14:53:09;11.50;99.90
51733;DHT22;39139;53.144;6.244;2024-02-14T14:55:55;11.40;99.90
51733;DHT22;39139;53.144;6.244;2024-02-14T14:58:21;11.50;99.90
51733;DHT22;39139;53.144;6.244;2024-02-14T15:00:48;11.50;99.90
51733;DHT22;39139;53.144;6.244;2024-02-14T15:03:14;11.50;99.90
51733;DHT22;39139;53.144;6.244;2024-02-14T15:05:39;11.40;99.90
51733;DHT22;39139;53.144;6.244;2024-02-14T15:08:06;11.40;99.90
51733;DHT22;39139;53.144;6.244;2024-02-14T15:10:33;11.50;99.90
51733;DHT22;39139;53.144;6.244;2024-02-14T15:13:00;11.30;99.90
51733;DHT22;39139;53.144;6.244;2024-02-14T15:15:26;11.40;99.90
51733;DHT22;39139;53.144;6.244;2024-02-14T15:17:51;11.40;99.90
51733;DHT22;39139;53.144;6.244;2024-02-14T15:20:17;11.40;99.90
51733;DHT22;39139;53.144;6.244;2024-02-14T15:22:43;11.30;99.90
51733;DHT22;39139;53.144;6.244;2024-02-14T15:25:09;11.50;99.90
51733;DHT22;39139;53.144;6.244;2024-02-14T15:27:34;11.40;99.90
51733;DHT22;39139;53.144;6.244;2024-02-14T15:30:06;11.30;99.90
51733;DHT22;39139;53.144;6.244;2024-02-14T15:32:50;11.40;99.90
51733;DHT22;39139;53.144;6.244;2024-02-14T15:35:34;11.40;99.90
51733;DHT22;39139;53.144;6.244;2024-02-14T15:38:00;11.30;99.90